createdAt,value
2018-11-21T00:00:49.836Z,7.48
2018-11-21T00:03:18.328Z,7.52
2018-11-21T00:05:46.793Z,7.52
2018-11-21T00:08:15.360Z,7.50
2018-11-21T00:10:43.869Z,7.45
2018-11-21T00:13:12.457Z,7.52
2018-11-21T00:15:40.957Z,7.47
2018-11-21T00:18:09.630Z,7.51
2018-11-21T00:20:38.026Z,7.53
2018-11-21T00:23:06.594Z,7.57
2018-11-21T00:25:35.100Z,7.56
2018-11-21T00:28:03.616Z,7.51
2018-11-21T00:30:32.160Z,7.54
2018-11-21T00:33:00.596Z,7.52
2018-11-21T00:35:29.054Z,7.53
2018-11-21T00:37:57.538Z,7.51
2018-11-21T00:40:26.068Z,7.50
2018-11-21T00:42:54.468Z,7.48
2018-11-21T00:45:23.007Z,7.46
2018-11-21T00:47:51.499Z,7.47
2018-11-21T00:50:19.890Z,7.46
2018-11-21T00:52:48.328Z,7.46
2018-11-21T00:55:16.835Z,7.44
2018-11-21T00:57:45.316Z,7.45
2018-11-21T01:00:13.815Z,7.42
2018-11-21T01:02:42.385Z,7.40
2018-11-21T01:05:10.826Z,7.43
2018-11-21T01:07:39.341Z,7.40
2018-11-21T01:10:07.789Z,7.38
2018-11-21T01:12:36.264Z,7.31
2018-11-21T01:15:04.765Z,7.32
2018-11-21T01:17:33.219Z,7.32
2018-11-21T01:20:01.665Z,7.30
2018-11-21T01:22:30.147Z,7.29
2018-11-21T01:24:58.621Z,7.28
2018-11-21T01:27:27.360Z,7.25
2018-11-21T01:29:55.596Z,7.28
2018-11-21T01:32:24.091Z,7.23
2018-11-21T01:34:52.505Z,7.26
2018-11-21T01:37:21.094Z,7.30
2018-11-21T01:39:49.508Z,7.27
2018-11-21T01:42:18.008Z,7.27
2018-11-21T01:44:46.543Z,7.26
2018-11-21T01:47:15.075Z,7.27
2018-11-21T01:49:43.647Z,7.25
2018-11-21T01:52:12.071Z,7.29
2018-11-21T01:54:40.533Z,7.28
2018-11-21T01:57:09.005Z,7.25
2018-11-21T01:59:37.506Z,7.27
2018-11-21T02:02:06.486Z,7.25
2018-11-21T02:04:34.925Z,7.27
2018-11-21T02:07:03.383Z,7.26
2018-11-21T02:09:31.850Z,7.20
2018-11-21T02:12:00.346Z,7.22
2018-11-21T02:14:28.869Z,7.21
2018-11-21T02:16:57.375Z,7.21
2018-11-21T04:15:16.155Z,6.73
2018-11-21T04:17:42.192Z,6.65
2018-11-21T04:20:11.063Z,6.66
2018-11-21T04:22:39.651Z,6.66
2018-11-21T04:25:16.953Z,6.71
2018-11-21T04:27:45.354Z,6.72
2018-11-21T04:30:13.938Z,6.74
2018-11-21T04:32:43.628Z,6.76
2018-11-21T04:35:12.093Z,6.73
2018-11-21T04:37:40.592Z,6.79
2018-11-21T04:40:09.064Z,6.79
2018-11-21T04:42:38.066Z,6.76
2018-11-21T04:45:07.992Z,6.81
2018-11-21T04:47:36.496Z,6.78
2018-11-21T04:50:05.866Z,6.83
2018-11-21T04:52:34.405Z,6.85
2018-11-21T04:55:02.847Z,6.81
2018-11-21T04:57:31.420Z,6.80
2018-11-21T04:59:59.876Z,6.83
2018-11-21T05:02:28.392Z,6.83
2018-11-21T05:04:56.913Z,6.84
2018-11-21T05:07:25.570Z,6.78
2018-11-21T05:09:54.127Z,6.77
2018-11-21T05:12:22.741Z,6.78
2018-11-21T05:14:51.151Z,6.76
2018-11-21T05:17:19.754Z,6.74
2018-11-21T05:19:48.201Z,6.71
2018-11-21T05:22:16.623Z,6.70
2018-11-21T05:24:45.247Z,6.68
2018-11-21T05:27:13.710Z,6.66
2018-11-21T05:29:42.250Z,6.64
2018-11-21T05:32:10.701Z,6.63
2018-11-21T05:34:39.591Z,6.59
2018-11-21T05:37:08.409Z,6.56
2018-11-21T05:39:36.987Z,6.54
2018-11-21T05:42:05.819Z,6.53
2018-11-21T05:44:34.368Z,6.50
2018-11-21T05:47:02.871Z,6.49
2018-11-21T05:49:31.357Z,6.46
2018-11-21T05:51:59.891Z,6.44
2018-11-21T05:54:28.365Z,6.37
2018-11-21T05:57:00.005Z,6.35
2018-11-21T05:59:28.435Z,6.32
2018-11-21T06:01:56.895Z,6.30
2018-11-21T06:04:25.430Z,6.26
2018-11-21T06:06:53.865Z,6.23
2018-11-21T06:09:22.350Z,6.21
2018-11-21T06:11:50.830Z,6.18
2018-11-21T06:14:19.243Z,6.17
2018-11-21T06:16:47.744Z,6.15
2018-11-21T06:19:16.231Z,6.11
2018-11-21T06:21:44.745Z,6.08
2018-11-21T06:24:13.225Z,6.05
2018-11-21T06:26:41.677Z,6.03
2018-11-21T06:29:10.221Z,6.01
2018-11-21T06:31:38.751Z,5.99
2018-11-21T06:34:07.733Z,5.95
2018-11-21T06:36:36.672Z,5.93
2018-11-21T06:39:07.677Z,5.90
2018-11-21T06:41:36.250Z,5.89
2018-11-21T06:44:04.838Z,5.86
2018-11-21T06:46:33.433Z,5.85
2018-11-21T06:49:01.922Z,5.82
2018-11-21T06:51:35.205Z,5.79
2018-11-21T06:53:59.103Z,5.76
2018-11-21T06:56:27.657Z,5.76
2018-11-21T06:58:56.148Z,5.75
2018-11-21T07:01:24.668Z,5.75
2018-11-21T07:03:53.319Z,5.74
2018-11-21T07:06:21.809Z,5.73
2018-11-21T07:08:50.371Z,5.71
2018-11-21T07:11:18.784Z,5.67
2018-11-21T07:13:47.304Z,5.68
2018-11-21T07:16:15.923Z,5.69
2018-11-21T07:18:44.508Z,5.72
2018-11-21T07:21:13.551Z,5.74
2018-11-21T07:23:43.356Z,5.74
2018-11-21T07:26:10.989Z,5.74
2018-11-21T07:28:39.545Z,5.75
2018-11-21T07:31:08.049Z,5.77
2018-11-21T07:33:36.876Z,5.82
2018-11-21T07:36:05.674Z,5.83
2018-11-21T07:38:34.250Z,5.89
2018-11-21T07:41:02.754Z,5.94
2018-11-21T07:43:31.257Z,6.03
2018-11-21T07:45:59.815Z,6.06
2018-11-21T07:48:28.331Z,6.10
2018-11-21T07:51:02.233Z,6.22
2018-11-21T07:53:25.477Z,6.64
2018-11-21T07:55:54.075Z,7.27
2018-11-21T07:58:24.210Z,7.99
2018-11-21T08:01:16.502Z,8.78
2018-11-21T08:03:49.986Z,9.52
2018-11-21T08:06:30.754Z,10.37
2018-11-21T08:09:26.143Z,10.97
2018-11-21T08:12:12.524Z,11.73
2018-11-21T08:14:58.730Z,12.29
2018-11-21T08:17:49.124Z,12.39
2018-11-21T08:20:36.593Z,12.50
2018-11-21T08:23:27.354Z,12.91
2018-11-21T08:26:06.383Z,13.08
2018-11-21T08:28:34.881Z,13.43
2018-11-21T08:31:03.786Z,13.53
2018-11-21T08:33:33.998Z,13.26
2018-11-21T08:36:01.358Z,12.67
2018-11-21T08:38:29.959Z,12.03
2018-11-21T08:40:58.454Z,11.52
2018-11-21T08:43:27.014Z,11.01
2018-11-21T08:45:55.486Z,10.59
2018-11-21T08:48:24.403Z,10.26
2018-11-21T08:50:52.974Z,10.24
2018-11-21T08:53:21.402Z,10.42
2018-11-21T08:55:49.851Z,10.64
2018-11-21T08:58:18.409Z,11.08
2018-11-21T09:00:47.439Z,11.65
2018-11-21T09:03:15.970Z,12.94
2018-11-21T09:05:44.508Z,14.62
2018-11-21T09:08:13.006Z,16.06
2018-11-21T09:10:41.775Z,17.02
2018-11-21T09:13:10.360Z,17.81
2018-11-21T09:15:39.493Z,18.53
2018-11-21T09:18:08.262Z,18.92
2018-11-21T09:20:38.053Z,18.18
2018-11-21T09:23:07.297Z,16.93
2018-11-21T09:25:35.891Z,15.74
2018-11-21T09:28:04.582Z,14.68
2018-11-21T09:30:33.219Z,13.87
2018-11-21T09:33:02.395Z,13.28
2018-11-21T09:35:31.398Z,12.92
2018-11-21T09:37:59.915Z,13.76
2018-11-21T09:40:28.376Z,14.88
2018-11-21T09:42:57.251Z,15.36
2018-11-21T09:45:26.174Z,16.04
2018-11-21T09:47:54.593Z,16.20
2018-11-21T09:50:27.517Z,16.65
2018-11-21T09:52:56.152Z,17.24
2018-11-21T09:55:24.593Z,17.04
2018-11-21T09:57:53.084Z,16.75
2018-11-21T10:00:58.138Z,16.57
2018-11-21T10:03:31.573Z,16.51
2018-11-21T10:06:12.524Z,16.44
2018-11-21T10:08:42.554Z,16.63
2018-11-21T10:11:12.303Z,17.65
2018-11-21T10:13:40.776Z,18.65
2018-11-21T10:16:09.586Z,18.55
2018-11-21T10:18:39.881Z,18.04
2018-11-21T10:21:13.450Z,18.18
2018-11-21T10:23:41.858Z,18.82
2018-11-21T10:26:10.470Z,19.25
2018-11-21T10:28:39.337Z,19.65
2018-11-21T10:31:07.870Z,19.38
2018-11-21T10:33:36.460Z,18.72
2018-11-21T10:36:05.347Z,18.05
2018-11-21T10:38:34.055Z,17.26
2018-11-21T10:41:02.808Z,16.75
2018-11-21T10:43:32.098Z,16.29
2018-11-21T10:46:00.742Z,15.96
2018-11-21T10:48:29.291Z,15.89
2018-11-21T10:50:57.844Z,16.47
2018-11-21T10:53:27.283Z,17.68
2018-11-21T10:55:55.952Z,18.37
2018-11-21T10:58:24.478Z,19.09
2018-11-21T11:01:10.879Z,20.07
2018-11-21T11:03:41.942Z,20.34
2018-11-21T11:06:40.155Z,20.70
2018-11-21T11:09:32.682Z,21.20
2018-11-21T11:12:38.707Z,21.97
2018-11-21T11:15:30.478Z,23.20
2018-11-21T11:18:36.042Z,24.77
2018-11-21T11:21:23.555Z,26.09
2018-11-21T11:24:16.790Z,26.84
2018-11-21T11:27:10.116Z,27.49
2018-11-21T11:29:56.138Z,27.02
2018-11-21T11:32:42.051Z,27.14
2018-11-21T11:35:44.535Z,28.24
2018-11-21T11:38:39.729Z,29.14
2018-11-21T11:41:25.648Z,29.69
2018-11-21T11:44:09.612Z,29.93
2018-11-21T11:47:06.816Z,30.70
2018-11-21T11:49:53.313Z,31.00
2018-11-21T11:52:59.071Z,31.13
2018-11-21T11:55:45.096Z,30.55
2018-11-21T11:58:32.454Z,30.42
2018-11-21T12:01:17.420Z,30.42
2018-11-21T12:04:03.993Z,30.03
2018-11-21T12:06:45.283Z,29.94
2018-11-21T12:09:31.409Z,30.68
2018-11-21T12:12:17.640Z,30.88
2018-11-21T12:15:03.089Z,29.90
2018-11-21T12:17:59.788Z,27.60
2018-11-21T12:20:56.451Z,26.85
2018-11-21T12:23:46.227Z,27.21
2018-11-21T12:26:30.115Z,26.53
2018-11-21T12:29:15.953Z,26.52
2018-11-21T12:32:10.996Z,26.59
2018-11-21T12:34:56.860Z,26.45
2018-11-21T12:37:43.333Z,25.59
2018-11-21T12:40:36.723Z,25.00
2018-11-21T12:43:17.296Z,23.92
2018-11-21T12:46:07.653Z,22.65
2018-11-21T12:48:46.331Z,21.39
2018-11-21T12:51:34.236Z,20.21
2018-11-21T12:54:30.830Z,19.34
2018-11-21T12:57:24.305Z,18.60
2018-11-21T13:00:11.909Z,17.95
2018-11-21T13:02:59.695Z,17.34
2018-11-21T13:05:38.886Z,16.82
2018-11-21T13:08:25.319Z,16.23
2018-11-21T13:11:11.301Z,15.91
2018-11-21T13:13:57.273Z,15.52
2018-11-21T13:16:43.411Z,15.28
2018-11-21T13:19:38.615Z,15.09
2018-11-21T13:22:19.032Z,14.87
2018-11-21T13:24:58.193Z,14.60
2018-11-21T13:27:52.554Z,14.48
2018-11-21T13:30:41.729Z,14.21
2018-11-21T13:33:47.534Z,13.95
2018-11-21T13:36:35.163Z,13.76
2018-11-21T13:39:25.002Z,13.58
2018-11-21T13:42:09.223Z,13.53
2018-11-21T13:44:55.518Z,13.43
2018-11-21T13:47:52.052Z,13.39
2018-11-21T13:50:45.740Z,13.30
2018-11-21T13:53:39.282Z,13.27
2018-11-21T13:56:11.224Z,13.22
2018-11-21T13:58:40.092Z,13.10
2018-11-21T14:01:08.682Z,12.93
2018-11-21T14:03:37.338Z,12.77
2018-11-21T14:06:05.877Z,12.67
2018-11-21T14:08:34.917Z,12.62
2018-11-21T14:11:03.835Z,12.46
2018-11-21T14:13:32.418Z,12.33
2018-11-21T14:16:00.963Z,12.27
2018-11-21T14:18:29.607Z,12.22
2018-11-21T14:20:58.291Z,12.24
2018-11-21T14:23:26.830Z,12.18
2018-11-21T14:25:55.555Z,12.10
2018-11-21T14:28:24.574Z,12.05
2018-11-21T14:30:53.128Z,11.96
2018-11-21T14:33:21.622Z,11.90
2018-11-21T14:35:56.007Z,11.83
2018-11-21T14:38:18.693Z,11.77
2018-11-21T14:40:47.267Z,11.75
2018-11-21T14:43:15.832Z,10.58
2018-11-21T14:45:44.461Z,11.71
2018-11-21T14:48:13.014Z,11.65
2018-11-21T14:50:41.746Z,11.55
2018-11-21T14:53:10.314Z,11.41
2018-11-21T14:55:38.800Z,11.30
2018-11-21T14:58:07.484Z,11.24
2018-11-21T15:00:35.974Z,11.14
2018-11-21T15:03:04.656Z,11.07
2018-11-21T15:05:33.426Z,11.03
2018-11-21T15:08:02.003Z,10.94
2018-11-21T15:10:30.597Z,10.89
2018-11-21T15:12:59.205Z,10.83
2018-11-21T15:15:27.665Z,10.78
2018-11-21T15:17:56.262Z,10.76
2018-11-21T15:20:25.710Z,10.72
2018-11-21T15:22:54.300Z,10.64
2018-11-21T15:25:23.804Z,10.58
2018-11-21T15:27:52.446Z,10.51
2018-11-21T15:30:31.048Z,10.46
2018-11-21T15:32:59.632Z,10.44
2018-11-21T15:35:28.167Z,10.36
2018-11-21T15:37:56.723Z,10.23
2018-11-21T15:40:26.208Z,10.16
2018-11-21T15:42:54.848Z,10.06
2018-11-21T15:45:25.011Z,10.02
2018-11-21T15:47:56.308Z,10.02
2018-11-21T15:50:25.075Z,9.98
2018-11-21T15:52:53.799Z,9.94
2018-11-21T15:55:22.513Z,9.92
2018-11-21T15:57:51.335Z,9.88
2018-11-21T16:00:23.002Z,9.85
2018-11-21T16:02:53.399Z,9.83
2018-11-21T16:05:22.067Z,9.80
2018-11-21T16:07:50.896Z,9.76
2018-11-21T16:10:21.346Z,9.71
2018-11-21T16:12:49.906Z,9.67
2018-11-21T16:15:21.973Z,9.64
2018-11-21T16:17:50.865Z,9.57
2018-11-21T16:20:19.759Z,9.53
2018-11-21T16:22:48.525Z,9.50
2018-11-21T16:25:18.546Z,9.44
2018-11-21T16:27:46.989Z,9.43
2018-11-21T16:30:17.562Z,9.34
2018-11-21T16:32:46.726Z,9.28
2018-11-21T16:35:15.648Z,9.23
2018-11-21T16:37:44.272Z,9.16
2018-11-21T16:40:16.760Z,9.10
2018-11-21T16:42:45.298Z,9.06
2018-11-21T16:45:15.654Z,8.97
2018-11-21T16:47:44.184Z,8.92
2018-11-21T16:50:14.434Z,8.88
2018-11-21T16:52:43.046Z,8.83
2018-11-21T16:55:14.039Z,8.78
2018-11-21T16:57:43.178Z,8.72
2018-11-21T17:00:15.019Z,8.68
2018-11-21T17:02:43.535Z,8.65
2018-11-21T17:05:15.926Z,8.60
2018-11-21T17:07:44.495Z,8.57
2018-11-21T17:10:21.278Z,8.53
2018-11-21T17:12:50.022Z,8.48
2018-11-21T17:15:19.963Z,8.47
2018-11-21T17:17:48.514Z,8.46
2018-11-21T17:20:20.079Z,8.43
2018-11-21T17:22:50.086Z,8.43
2018-11-21T17:25:19.930Z,8.44
2018-11-21T17:27:49.639Z,8.45
2018-11-21T17:30:19.840Z,8.45
2018-11-21T17:32:48.516Z,8.47
2018-11-21T17:35:17.882Z,8.49
2018-11-21T17:37:46.417Z,8.51
2018-11-21T17:40:26.894Z,8.51
2018-11-21T17:42:55.817Z,8.44
2018-11-21T17:45:24.359Z,8.34
2018-11-21T17:47:52.922Z,8.20
2018-11-21T17:50:23.059Z,8.11
2018-11-21T17:52:52.934Z,8.06
2018-11-21T17:55:23.300Z,8.00
2018-11-21T17:57:51.874Z,7.91
2018-11-21T18:00:22.106Z,7.82
2018-11-21T18:02:50.709Z,7.81
2018-11-21T18:05:24.417Z,7.80
2018-11-21T18:07:53.278Z,7.33
2018-11-21T18:10:23.597Z,7.79
2018-11-21T18:12:52.345Z,7.72
2018-11-21T18:15:21.358Z,7.73
2018-11-21T18:17:50.194Z,7.77
2018-11-21T18:20:19.318Z,7.75
2018-11-21T18:22:48.489Z,7.80
2018-11-21T18:25:21.052Z,7.81
2018-11-21T18:27:49.713Z,7.80
2018-11-21T18:30:20.010Z,7.77
2018-11-21T18:32:48.650Z,7.84
2018-11-21T18:35:18.724Z,7.89
2018-11-21T18:37:47.676Z,7.94
2018-11-21T18:40:20.503Z,8.00
2018-11-21T18:42:49.081Z,8.03
2018-11-21T18:45:26.610Z,8.07
2018-11-21T18:47:55.145Z,8.08
2018-11-21T18:50:24.116Z,7.99
2018-11-21T18:52:55.375Z,7.33
2018-11-21T18:55:27.494Z,8.03
2018-11-21T18:58:35.110Z,8.05
2018-11-21T19:01:03.644Z,8.10
2018-11-21T19:03:32.179Z,8.15
2018-11-21T19:06:08.670Z,8.17
2018-11-21T19:08:37.217Z,8.24
2018-11-21T19:11:09.926Z,8.22
2018-11-21T19:13:39.367Z,8.25
2018-11-21T19:16:07.853Z,8.29
2018-11-21T19:18:36.477Z,8.34
2018-11-21T19:21:05.114Z,8.32
2018-11-21T19:23:33.729Z,8.31
2018-11-21T19:26:02.357Z,8.36
2018-11-21T19:28:30.962Z,8.39
2018-11-21T19:30:59.446Z,8.39
2018-11-21T19:33:27.926Z,8.39
2018-11-21T19:35:56.442Z,8.43
2018-11-21T19:38:24.962Z,8.46
2018-11-21T19:40:53.746Z,8.47
2018-11-21T19:43:22.164Z,8.48
2018-11-21T19:45:50.586Z,8.45
2018-11-21T19:48:19.352Z,8.47
2018-11-21T19:50:47.720Z,8.51
2018-11-21T19:53:16.249Z,8.56
2018-11-21T19:55:44.811Z,8.60
2018-11-21T19:58:13.338Z,8.67
2018-11-21T20:00:41.917Z,8.72
2018-11-21T20:03:10.306Z,8.72
2018-11-21T20:05:38.749Z,8.71
2018-11-21T20:08:07.237Z,8.71
2018-11-21T20:10:35.717Z,8.70
2018-11-21T20:13:04.257Z,8.72
2018-11-21T20:15:32.605Z,8.77
2018-11-21T20:18:02.263Z,8.80
2018-11-21T20:20:30.715Z,8.83
2018-11-21T20:22:59.169Z,8.83
2018-11-21T20:25:27.896Z,8.85
2018-11-21T20:27:56.395Z,8.88
2018-11-21T20:30:26.405Z,8.91
2018-11-21T20:32:54.956Z,8.91
2018-11-21T20:35:23.444Z,8.96
2018-11-21T20:37:51.892Z,8.92
2018-11-21T20:40:27.759Z,8.94
2018-11-21T20:42:56.293Z,8.96
2018-11-21T20:45:26.033Z,8.94
2018-11-21T20:47:55.328Z,8.98
2018-11-21T20:50:23.878Z,9.02
2018-11-21T20:52:52.270Z,9.02
2018-11-21T20:55:23.130Z,9.06
2018-11-21T20:57:51.633Z,9.07
2018-11-21T21:00:24.509Z,9.08
2018-11-21T21:02:53.012Z,9.07
2018-11-21T21:05:23.165Z,9.06
2018-11-21T21:07:52.053Z,9.07
2018-11-21T21:10:22.543Z,9.06
2018-11-21T21:12:50.879Z,8.94
2018-11-21T21:15:19.335Z,8.94
2018-11-21T21:17:48.616Z,8.88
2018-11-21T21:20:18.583Z,8.88
2018-11-21T21:22:48.138Z,8.87
2018-11-21T21:25:18.438Z,8.89
2018-11-21T21:27:46.915Z,8.81
2018-11-21T21:30:17.130Z,8.87
2018-11-21T21:32:46.208Z,8.86
2018-11-21T21:35:15.340Z,8.84
2018-11-21T21:37:43.731Z,8.82
2018-11-21T21:40:16.882Z,8.78
2018-11-21T21:42:43.117Z,8.63
2018-11-21T21:45:13.766Z,8.57
2018-11-21T21:47:42.186Z,8.55
2018-11-21T21:50:11.453Z,8.50
2018-11-21T21:52:39.884Z,8.56
2018-11-21T21:55:09.442Z,8.52
2018-11-21T21:57:37.869Z,8.49
2018-11-21T22:00:10.082Z,8.56
2018-11-21T22:02:38.581Z,8.50
2018-11-21T22:05:08.039Z,8.57
2018-11-21T22:07:36.578Z,8.63
2018-11-21T22:10:07.771Z,8.64
2018-11-21T22:12:36.189Z,8.69
2018-11-21T22:15:09.523Z,8.72
2018-11-21T22:17:39.033Z,8.74
2018-11-21T22:20:07.433Z,8.78
2018-11-21T22:22:35.951Z,8.82
2018-11-21T22:25:04.375Z,8.86
2018-11-21T22:27:32.915Z,8.85
2018-11-21T22:30:01.301Z,8.84
2018-11-21T22:32:29.712Z,8.80
2018-11-21T22:34:58.164Z,8.84
2018-11-21T22:37:26.587Z,8.87
2018-11-21T22:39:55.017Z,8.92
2018-11-21T22:42:23.526Z,8.98
2018-11-21T22:44:51.861Z,8.99
2018-11-21T22:47:20.294Z,8.98
2018-11-21T22:49:48.736Z,8.98
2018-11-21T22:52:17.152Z,8.98
2018-11-21T22:54:45.535Z,8.99
2018-11-21T22:57:14.018Z,9.04
2018-11-21T22:59:42.378Z,9.07
2018-11-21T23:02:10.839Z,9.07
2018-11-21T23:04:39.233Z,9.06
2018-11-21T23:07:07.625Z,9.08
2018-11-21T23:09:36.057Z,9.05
2018-11-21T23:12:04.463Z,9.05
2018-11-21T23:14:32.888Z,9.02
2018-11-21T23:17:01.354Z,9.03
2018-11-21T23:19:29.778Z,9.00
2018-11-21T23:21:58.223Z,8.91
2018-11-21T23:24:26.645Z,8.95
2018-11-21T23:26:55.038Z,8.95
2018-11-21T23:29:23.506Z,8.91
2018-11-21T23:31:52.004Z,8.91
2018-11-21T23:34:20.469Z,8.88
2018-11-21T23:36:48.884Z,8.85
2018-11-21T23:39:17.303Z,8.88
2018-11-21T23:41:45.970Z,8.84
2018-11-21T23:44:14.443Z,8.89
2018-11-21T23:46:42.808Z,8.87
2018-11-21T23:49:11.329Z,8.88
2018-11-21T23:51:39.830Z,8.91
2018-11-21T23:54:08.305Z,8.91
2018-11-21T23:56:36.812Z,8.87
2018-11-21T23:59:05.637Z,8.86
